Barcelona Aeropuerto

latitud = 41° 17' 34''N | longitud = 002° 04' 12''E
4 metros sobre el nivel del mar | datos mensuales

Fecha, hora, temperatura, viento dirección y velocidad, humedad y presión.

  • 14-10-2018 19:00:00 | 23.50°C | Sudeste |22.00 km/h | 76.00% | 1006.80 hPa
  • 14-10-2018 18:00:00 | 23.80°C | Sudeste |26.00 km/h | 76.00% | 1007.20 hPa
  • 14-10-2018 17:00:00 | 24.30°C | Sudeste |24.00 km/h | 75.00% | 1007.30 hPa
  • 14-10-2018 16:00:00 | 24.80°C | Sudeste |25.00 km/h | 73.00% | 1007.60 hPa
  • 14-10-2018 15:00:00 | 25.20°C | Sudeste |20.00 km/h | 70.00% | 1008.70 hPa
  • 14-10-2018 14:00:00 | 25.40°C | Sur |18.00 km/h | 68.00% | 1009.70 hPa
  • 14-10-2018 13:00:00 | 25.50°C | Sudeste |14.00 km/h | 69.00% | 1010.60 hPa
  • 14-10-2018 12:00:00 | 24.70°C | Sur |14.00 km/h | 73.00% | 1011.00 hPa
  • 14-10-2018 11:00:00 | 22.00°C | Norte |9.00 km/h | 87.00% | 1011.30 hPa
  • 14-10-2018 10:00:00 | 19.70°C | Norte |9.00 km/h | 93.00% | 1011.80 hPa
  • 14-10-2018 09:00:00 | 18.60°C | Norte |9.00 km/h | 97.00% | 1011.70 hPa
  • 14-10-2018 08:00:00 | 18.80°C | Norte |12.00 km/h | 96.00% | 1011.40 hPa
  • 14-10-2018 07:00:00 | 18.90°C | Norte |12.00 km/h | 96.00% | 1011.90 hPa
  • 14-10-2018 06:00:00 | 19.30°C | Norte |11.00 km/h | 96.00% | 1012.20 hPa
  • 14-10-2018 05:00:00 | 19.50°C | Norte |10.00 km/h | 96.00% | 1012.70 hPa
  • 14-10-2018 04:00:00 | 19.80°C | Norte |11.00 km/h | 95.00% | 1013.20 hPa
  • 14-10-2018 03:00:00 | 19.90°C | Norte |11.00 km/h | 95.00% | 1014.00 hPa
  • 14-10-2018 02:00:00 | 19.80°C | Norte |10.00 km/h | 96.00% | 1014.70 hPa
  • 14-10-2018 01:00:00 | 20.20°C | Norte |7.00 km/h | 96.00% | 1015.00 hPa
  • 14-10-2018 00:00:00 | 21.00°C | Calma |0.00 km/h | 93.00% | 1015.50 hPa
  • 13-10-2018 23:00:00 | 21.90°C | Calma |0.00 km/h | 89.00% | 1016.00 hPa
  • 13-10-2018 22:00:00 | 22.60°C | Sur |7.00 km/h | 83.00% | 1016.20 hPa
  • 13-10-2018 21:00:00 | 22.90°C | Sur |8.00 km/h | 82.00% | 1016.30 hPa
  • 13-10-2018 20:00:00 | 23.00°C | Sur |5.00 km/h | 81.00% | 1016.40 hPa